createdAt,value
2018-07-27T00:02:14.072Z,3.45
2018-07-27T00:04:42.277Z,3.75
2018-07-27T00:07:10.434Z,4.12
2018-07-27T00:09:38.570Z,4.30
2018-07-27T00:12:06.717Z,3.83
2018-07-27T00:14:34.829Z,3.45
2018-07-27T00:17:02.966Z,4.58
2018-07-27T00:19:31.101Z,3.85
2018-07-27T00:21:59.234Z,3.65
2018-07-27T00:24:27.375Z,4.00
2018-07-27T00:26:55.510Z,3.50
2018-07-27T00:29:23.637Z,3.55
2018-07-27T00:31:51.825Z,4.45
2018-07-27T00:34:19.967Z,4.60
2018-07-27T00:36:48.108Z,3.75
2018-07-27T00:39:16.238Z,4.22
2018-07-27T00:41:44.369Z,3.87
2018-07-27T00:44:12.533Z,4.20
2018-07-27T00:46:40.678Z,3.83
2018-07-27T00:49:08.812Z,3.77
2018-07-27T00:51:36.946Z,4.12
2018-07-27T00:54:05.074Z,4.55
2018-07-27T00:56:33.201Z,4.20
2018-07-27T00:59:01.334Z,5.42
2018-07-27T01:01:29.450Z,5.85
2018-07-27T01:03:57.625Z,4.17
2018-07-27T01:06:25.794Z,3.70
2018-07-27T01:08:53.959Z,4.92
2018-07-27T01:11:22.111Z,3.72
2018-07-27T01:13:50.274Z,4.30
2018-07-27T01:16:18.417Z,3.83
2018-07-27T01:18:46.577Z,3.83
2018-07-27T01:21:14.742Z,4.03
2018-07-27T01:23:42.920Z,4.00
2018-07-27T01:26:11.074Z,4.37
2018-07-27T01:28:39.230Z,3.90
2018-07-27T01:31:07.392Z,5.75
2018-07-27T01:33:35.542Z,4.22
2018-07-27T01:36:03.754Z,4.90
2018-07-27T01:38:31.930Z,3.80
2018-07-27T01:41:00.105Z,4.45
2018-07-27T01:43:28.268Z,4.58
2018-07-27T01:45:56.425Z,3.90
2018-07-27T01:48:24.584Z,4.12
2018-07-27T01:50:52.815Z,4.03
2018-07-27T01:53:20.921Z,3.92
2018-07-27T01:55:49.083Z,3.87
2018-07-27T01:58:17.240Z,5.30
2018-07-27T02:00:45.389Z,4.25
2018-07-27T02:03:13.554Z,4.03
2018-07-27T02:05:41.773Z,4.22
2018-07-27T02:08:09.940Z,4.05
2018-07-27T02:10:38.092Z,5.03
2018-07-27T02:13:06.311Z,5.92
2018-07-27T02:15:34.437Z,4.47
2018-07-27T02:18:02.653Z,3.95
2018-07-27T02:20:30.814Z,7.28
2018-07-27T02:22:58.961Z,4.65
2018-07-27T02:25:27.140Z,3.90
2018-07-27T02:27:55.290Z,4.45
2018-07-27T02:30:23.172Z,4.37
2018-07-27T02:32:51.319Z,4.12
2018-07-27T02:35:19.451Z,3.85
2018-07-27T02:37:47.590Z,5.25
2018-07-27T02:40:15.738Z,5.42
2018-07-27T02:42:43.881Z,4.20
2018-07-27T02:45:12.032Z,4.60
2018-07-27T02:47:40.162Z,4.37
2018-07-27T02:50:08.297Z,4.55
2018-07-27T02:52:36.483Z,3.62
2018-07-27T02:55:04.659Z,4.67
2018-07-27T02:57:32.792Z,3.95
2018-07-27T03:00:00.920Z,4.72
2018-07-27T03:02:29.046Z,5.05
2018-07-27T03:04:57.182Z,4.40
2018-07-27T03:07:25.321Z,4.85
2018-07-27T03:09:53.563Z,4.28
2018-07-27T03:12:21.589Z,7.17
2018-07-27T03:14:49.745Z,4.78
2018-07-27T03:17:17.887Z,6.37
2018-07-27T03:19:46.001Z,4.40
2018-07-27T03:22:14.139Z,4.42
2018-07-27T03:24:42.298Z,5.83
2018-07-27T03:27:10.417Z,4.72
2018-07-27T03:29:38.561Z,5.15
2018-07-27T03:32:06.686Z,5.00
2018-07-27T03:34:34.594Z,5.97
2018-07-27T03:37:02.704Z,3.87
2018-07-27T03:39:30.861Z,5.87
2018-07-27T03:41:58.983Z,4.80
2018-07-27T03:44:27.114Z,4.03
2018-07-27T03:46:55.216Z,5.05
2018-07-27T03:49:23.353Z,5.50
2018-07-27T03:51:51.480Z,5.22
2018-07-27T03:54:19.615Z,5.55
2018-07-27T03:56:47.749Z,4.40
2018-07-27T03:59:15.870Z,4.72
2018-07-27T04:01:44.018Z,5.47
2018-07-27T04:04:12.150Z,5.60
2018-07-27T04:06:40.282Z,6.47
2018-07-27T04:09:09.174Z,7.80
2018-07-27T04:11:37.538Z,5.30
2018-07-27T04:14:05.896Z,7.53
2018-07-27T04:16:34.079Z,6.28
2018-07-27T04:19:02.325Z,5.25
2018-07-27T04:21:30.755Z,5.55
2018-07-27T04:23:58.933Z,5.40
2018-07-27T04:26:27.320Z,8.18
2018-07-27T04:28:55.374Z,6.83
2018-07-27T04:31:23.551Z,5.53
2018-07-27T04:33:51.722Z,4.67
2018-07-27T04:36:19.858Z,6.47
2018-07-27T04:38:48.010Z,9.38
2018-07-27T04:41:16.143Z,7.33
2018-07-27T04:43:44.283Z,7.08
2018-07-27T04:46:12.418Z,6.35
2018-07-27T04:48:40.630Z,6.87
2018-07-27T04:51:08.762Z,6.78
2018-07-27T04:53:36.676Z,7.20
2018-07-27T04:56:05.349Z,9.98
2018-07-27T04:58:33.474Z,5.35
2018-07-27T05:01:01.623Z,9.65
2018-07-27T05:03:29.781Z,6.12
2018-07-27T05:05:57.900Z,6.25
2018-07-27T05:08:26.031Z,6.58
2018-07-27T05:10:54.170Z,6.97
2018-07-27T05:13:22.298Z,9.43
2018-07-27T05:15:50.444Z,8.40
2018-07-27T05:18:18.885Z,9.15
2018-07-27T05:20:47.228Z,8.15
2018-07-27T05:23:15.366Z,6.55
2018-07-27T05:25:43.472Z,8.03
2018-07-27T05:28:11.626Z,9.38
2018-07-27T05:30:39.763Z,6.50
2018-07-27T05:33:07.890Z,9.13
2018-07-27T05:35:36.014Z,6.35
2018-07-27T05:38:04.152Z,5.62
2018-07-27T05:40:32.285Z,5.42
2018-07-27T05:43:00.420Z,6.50
2018-07-27T05:45:28.554Z,6.12
2018-07-27T05:47:56.702Z,7.40
2018-07-27T05:50:24.826Z,7.95
2018-07-27T05:52:52.979Z,5.87
2018-07-27T05:55:21.099Z,7.65
2018-07-27T05:57:49.270Z,6.25
2018-07-27T06:00:17.396Z,5.67
2018-07-27T06:02:45.610Z,5.62
2018-07-27T06:05:13.651Z,5.92
2018-07-27T06:07:41.778Z,5.65
2018-07-27T06:10:09.899Z,5.10
2018-07-27T06:12:38.071Z,4.62
2018-07-27T06:15:06.533Z,5.80
2018-07-27T06:17:34.691Z,5.67
2018-07-27T06:20:02.892Z,8.15
2018-07-27T06:22:31.007Z,8.68
2018-07-27T06:24:59.129Z,4.97
2018-07-27T06:27:27.261Z,7.20
2018-07-27T06:29:55.396Z,5.22
2018-07-27T06:32:23.516Z,5.33
2018-07-27T06:34:51.641Z,4.40
2018-07-27T06:37:19.537Z,5.53
2018-07-27T06:39:47.662Z,5.00
2018-07-27T06:42:15.885Z,4.72
2018-07-27T06:44:44.063Z,5.85
2018-07-27T06:47:12.189Z,6.05
2018-07-27T06:49:40.316Z,4.87
2018-07-27T06:52:08.531Z,5.45
2018-07-27T06:54:36.666Z,4.20
2018-07-27T06:57:04.795Z,5.85
2018-07-27T06:59:32.921Z,4.08
2018-07-27T07:02:01.037Z,6.05
2018-07-27T07:04:28.952Z,4.65
2018-07-27T07:06:57.131Z,8.40
2018-07-27T07:09:25.255Z,4.35
2018-07-27T07:11:53.396Z,5.03
2018-07-27T07:14:21.537Z,5.37
2018-07-27T07:16:49.671Z,4.87
2018-07-27T07:19:17.846Z,4.45
2018-07-27T07:21:46.001Z,5.55
2018-07-27T07:24:14.132Z,6.47
2018-07-27T07:26:42.257Z,5.80
2018-07-27T07:29:10.386Z,7.33
2018-07-27T07:31:38.521Z,5.12
2018-07-27T07:34:06.649Z,5.35
2018-07-27T07:36:34.786Z,5.25
2018-07-27T07:39:03.042Z,4.53
2018-07-27T07:41:31.169Z,5.60
2018-07-27T07:43:59.281Z,5.67
2018-07-27T07:46:27.429Z,5.65
2018-07-27T07:49:00.034Z,6.92
2018-07-27T07:51:28.171Z,4.72
2018-07-27T07:53:56.302Z,6.12
2018-07-27T07:56:24.432Z,5.37
2018-07-27T07:58:52.562Z,5.65
2018-07-27T08:01:20.694Z,7.00
2018-07-27T08:03:48.898Z,5.28
2018-07-27T08:06:17.115Z,4.90
2018-07-27T08:08:45.246Z,6.72
2018-07-27T08:11:13.413Z,6.15
2018-07-27T08:13:41.511Z,5.83
2018-07-27T08:16:09.673Z,5.40
2018-07-27T08:18:37.837Z,4.83
2018-07-27T08:21:06.188Z,5.72
2018-07-27T08:23:34.309Z,6.75
2018-07-27T08:26:38.968Z,5.72
2018-07-27T08:29:08.277Z,5.70
2018-07-27T08:31:36.444Z,8.15
2018-07-27T08:34:04.913Z,7.60
2018-07-27T08:36:33.924Z,9.48
2018-07-27T08:39:03.273Z,6.50
2018-07-27T08:41:31.351Z,5.05
2018-07-27T08:43:59.512Z,5.83
2018-07-27T08:46:27.664Z,5.42
2018-07-27T08:48:56.306Z,5.83
2018-07-27T08:51:24.531Z,6.10
2018-07-27T08:53:53.061Z,4.72
2018-07-27T08:56:21.246Z,6.85
2018-07-27T08:58:49.341Z,6.33
2018-07-27T09:01:17.235Z,5.92
2018-07-27T09:03:45.978Z,8.10
2018-07-27T09:06:14.109Z,4.85
2018-07-27T09:08:42.300Z,7.67
2018-07-27T09:11:10.460Z,5.40
2018-07-27T09:13:38.587Z,5.00
2018-07-27T09:16:06.946Z,5.00
2018-07-27T09:18:35.082Z,5.45
2018-07-27T09:21:03.210Z,5.78
2018-07-27T09:23:31.335Z,4.75
2018-07-27T09:25:59.442Z,7.55
2018-07-27T09:28:27.906Z,5.72
2018-07-27T09:30:56.807Z,4.15
2018-07-27T09:33:24.970Z,4.72
2018-07-27T09:35:53.458Z,4.45
2018-07-27T09:38:21.840Z,4.08
2018-07-27T09:40:50.002Z,4.30
2018-07-27T09:43:19.237Z,3.80
2018-07-27T09:45:47.389Z,3.90
2018-07-27T09:48:15.568Z,5.28
2018-07-27T09:50:44.759Z,3.95
2018-07-27T09:53:13.442Z,4.78
2018-07-27T09:55:41.841Z,4.47
2018-07-27T09:58:10.302Z,4.37
2018-07-27T10:00:43.671Z,4.87
2018-07-27T10:03:11.805Z,5.47
2018-07-27T10:05:39.944Z,5.53
2018-07-27T10:08:08.130Z,5.33
2018-07-27T10:10:36.789Z,5.03
2018-07-27T10:13:05.038Z,4.67
2018-07-27T10:15:33.233Z,4.87
2018-07-27T10:18:01.639Z,4.80
2018-07-27T10:20:29.802Z,4.53
2018-07-27T10:22:57.950Z,4.33
2018-07-27T10:25:26.102Z,4.17
2018-07-27T10:27:54.260Z,4.97
2018-07-27T10:30:22.397Z,5.05
2018-07-27T10:32:50.540Z,3.62
2018-07-27T10:35:18.665Z,3.70
2018-07-27T10:37:46.801Z,3.35
2018-07-27T10:40:14.932Z,4.00
2018-07-27T10:42:43.063Z,3.75
2018-07-27T10:45:11.227Z,4.85
2018-07-27T10:47:39.373Z,3.70
2018-07-27T10:50:07.551Z,4.30
2018-07-27T10:52:35.677Z,3.45
2018-07-27T10:55:03.830Z,3.60
2018-07-27T10:57:31.960Z,3.85
2018-07-27T11:00:00.082Z,3.80
2018-07-27T11:02:28.252Z,3.50
2018-07-27T11:04:56.355Z,4.35
2018-07-27T11:07:24.491Z,3.25
2018-07-27T11:09:52.676Z,4.70
2018-07-27T11:12:20.741Z,4.33
2018-07-27T11:14:48.873Z,3.70
2018-07-27T11:17:17.051Z,3.92
2018-07-27T11:19:45.119Z,3.80
2018-07-27T11:22:13.234Z,3.05
2018-07-27T11:24:41.358Z,3.10
2018-07-27T11:27:09.493Z,3.60
2018-07-27T11:29:37.400Z,3.60
2018-07-27T11:32:05.624Z,3.67
2018-07-27T11:34:33.753Z,3.65
2018-07-27T11:37:01.900Z,3.20
2018-07-27T11:39:30.117Z,3.20
2018-07-27T11:41:58.256Z,3.37
2018-07-27T11:44:26.399Z,3.55
2018-07-27T11:46:54.526Z,2.80
2018-07-27T11:49:22.670Z,3.72
2018-07-27T11:51:50.807Z,2.98
2018-07-27T11:54:18.934Z,3.30
2018-07-27T11:56:47.091Z,2.80
2018-07-27T11:59:15.222Z,2.70
2018-07-27T12:01:43.373Z,4.12
2018-07-27T12:04:11.500Z,4.20
2018-07-27T12:06:39.665Z,3.22
2018-07-27T12:09:09.437Z,2.60
2018-07-27T12:11:37.586Z,2.35
2018-07-27T12:14:05.970Z,2.70
2018-07-27T12:16:33.872Z,3.80
2018-07-27T12:19:01.999Z,5.22
2018-07-27T12:21:30.218Z,2.65
2018-07-27T12:23:58.324Z,3.22
2018-07-27T12:26:26.455Z,2.72
2018-07-27T12:28:54.592Z,2.87
2018-07-27T12:31:22.750Z,3.08
2018-07-27T12:33:50.915Z,3.33
2018-07-27T12:36:19.064Z,4.45
2018-07-27T12:38:47.284Z,4.08
2018-07-27T12:41:15.425Z,3.55
2018-07-27T12:43:43.585Z,3.40
2018-07-27T12:46:11.734Z,4.35
2018-07-27T12:48:39.880Z,5.80
2018-07-27T12:51:08.024Z,3.92
2018-07-27T12:53:36.169Z,3.52
2018-07-27T12:56:04.310Z,3.12
2018-07-27T12:58:32.469Z,5.65
2018-07-27T13:01:00.598Z,3.42
2018-07-27T13:03:28.736Z,4.47
2018-07-27T13:05:56.881Z,3.35
2018-07-27T13:08:25.066Z,4.87
2018-07-27T13:10:53.226Z,2.92
2018-07-27T13:13:21.142Z,4.03
2018-07-27T13:15:49.225Z,3.47
2018-07-27T13:18:17.334Z,3.05
2018-07-27T13:20:51.850Z,4.15
2018-07-27T13:23:20.927Z,3.25
2018-07-27T13:26:29.160Z,3.70
2018-07-27T13:28:42.446Z,3.60
2018-07-27T13:31:11.546Z,6.65
2018-07-27T13:33:51.015Z,5.03
2018-07-27T13:36:19.135Z,3.95
2018-07-27T13:38:47.286Z,3.25
2018-07-27T13:41:15.413Z,3.83
2018-07-27T13:43:43.590Z,4.80
2018-07-27T13:46:11.701Z,3.77
2018-07-27T13:48:39.813Z,3.77
2018-07-27T13:51:07.950Z,3.92
2018-07-27T13:53:36.069Z,3.33
2018-07-27T13:56:05.062Z,3.33
2018-07-27T13:58:33.182Z,2.90
2018-07-27T14:01:01.326Z,4.78
2018-07-27T14:03:29.467Z,3.40
2018-07-27T14:05:57.725Z,2.95
2018-07-27T14:08:25.841Z,3.00
2018-07-27T14:10:54.001Z,3.40
2018-07-27T14:13:22.135Z,4.45
2018-07-27T14:15:50.307Z,3.10
2018-07-27T14:18:18.478Z,3.00
2018-07-27T14:20:46.626Z,3.12
2018-07-27T14:23:14.766Z,3.85
2018-07-27T14:25:42.903Z,2.83
2018-07-27T14:28:11.039Z,4.37
2018-07-27T14:30:39.228Z,3.02
2018-07-27T14:33:07.354Z,3.25
2018-07-27T14:35:35.507Z,3.30
2018-07-27T14:38:03.623Z,3.15
2018-07-27T14:40:31.819Z,3.60
2018-07-27T14:42:59.966Z,3.58
2018-07-27T14:45:28.122Z,2.70
2018-07-27T14:47:56.257Z,2.80
2018-07-27T14:50:24.444Z,2.60
2018-07-27T14:52:52.606Z,3.58
2018-07-27T14:55:20.725Z,2.77
2018-07-27T14:57:48.871Z,3.77
2018-07-27T15:00:17.014Z,2.83
2018-07-27T15:02:45.165Z,3.12
2018-07-27T15:05:13.090Z,2.60
2018-07-27T15:07:41.241Z,3.65
2018-07-27T15:10:09.393Z,4.05
2018-07-27T15:12:37.531Z,3.47
2018-07-27T15:15:05.737Z,4.25
2018-07-27T15:17:33.830Z,3.50
2018-07-27T15:20:01.961Z,3.30
2018-07-27T15:22:30.130Z,3.22
2018-07-27T15:24:58.284Z,3.87
2018-07-27T15:27:26.425Z,4.33
2018-07-27T15:29:54.572Z,4.00
2018-07-27T15:32:22.810Z,3.20
2018-07-27T15:34:50.713Z,3.33
2018-07-27T15:37:18.863Z,5.87
2018-07-27T15:39:47.010Z,3.00
2018-07-27T15:42:15.181Z,3.55
2018-07-27T15:44:43.313Z,3.72
2018-07-27T15:47:11.471Z,3.58
2018-07-27T15:49:39.605Z,3.87
2018-07-27T15:52:07.761Z,3.67
2018-07-27T15:54:35.900Z,4.47
2018-07-27T15:57:04.422Z,4.25
2018-07-27T15:59:33.141Z,3.45
2018-07-27T16:02:01.054Z,3.10
2018-07-27T16:04:29.191Z,3.70
2018-07-27T16:06:57.105Z,3.37
2018-07-27T16:09:25.279Z,4.45
2018-07-27T16:11:53.433Z,4.92
2018-07-27T16:14:21.551Z,5.75
2018-07-27T16:16:49.733Z,4.17
2018-07-27T16:19:17.861Z,4.40
2018-07-27T16:21:46.017Z,6.22
2018-07-27T16:24:14.123Z,6.05
2018-07-27T16:26:42.616Z,4.85
2018-07-27T16:29:10.763Z,4.03
2018-07-27T16:31:38.898Z,4.10
2018-07-27T16:34:07.078Z,4.58
2018-07-27T16:36:35.245Z,5.62
2018-07-27T16:39:04.069Z,4.67
2018-07-27T16:41:32.264Z,4.67
2018-07-27T16:44:00.392Z,4.42
2018-07-27T16:46:28.525Z,5.95
2018-07-27T16:48:56.694Z,4.20
2018-07-27T16:51:24.865Z,5.45
2018-07-27T16:53:53.001Z,3.95
2018-07-27T16:56:21.137Z,4.10
2018-07-27T16:58:49.278Z,5.58
2018-07-27T17:01:17.510Z,5.12
2018-07-27T17:03:45.654Z,4.92
2018-07-27T17:06:13.841Z,4.42
2018-07-27T17:08:41.931Z,4.05
2018-07-27T17:11:10.099Z,3.92
2018-07-27T17:13:38.262Z,4.05
2018-07-27T17:16:06.401Z,4.67
2018-07-27T17:18:34.576Z,4.05
2018-07-27T17:21:02.727Z,4.10
2018-07-27T17:23:30.877Z,5.67
2018-07-27T17:25:59.010Z,4.37
2018-07-27T17:28:27.186Z,4.35
2018-07-27T17:30:55.254Z,5.37
2018-07-27T17:33:23.389Z,4.03
2018-07-27T17:35:51.537Z,4.15
2018-07-27T17:38:19.671Z,3.92
2018-07-27T17:40:47.853Z,4.72
2018-07-27T17:43:15.994Z,5.20
2018-07-27T17:45:44.129Z,6.08
2018-07-27T17:48:12.261Z,6.15
2018-07-27T17:50:40.431Z,5.35
2018-07-27T17:53:08.567Z,4.50
2018-07-27T17:55:36.705Z,3.72
2018-07-27T17:58:04.854Z,3.90
2018-07-27T18:00:32.980Z,4.60
2018-07-27T18:03:01.100Z,4.50
2018-07-27T18:05:29.241Z,4.60
2018-07-27T18:07:57.477Z,4.65
2018-07-27T18:10:25.517Z,5.60
2018-07-27T18:12:53.688Z,3.60
2018-07-27T18:15:21.830Z,3.70
2018-07-27T18:17:50.018Z,4.15
2018-07-27T18:20:18.149Z,4.10
2018-07-27T18:22:46.294Z,3.27
2018-07-27T18:25:16.804Z,3.52
2018-07-27T18:27:45.892Z,3.35
2018-07-27T18:30:14.052Z,3.95
2018-07-27T18:32:42.235Z,4.22
2018-07-27T18:35:10.517Z,3.50
2018-07-27T18:37:39.310Z,3.58
2018-07-27T18:40:08.814Z,3.87
2018-07-27T18:42:37.202Z,4.15
2018-07-27T18:45:05.969Z,3.05
2018-07-27T18:47:34.120Z,3.50
2018-07-27T18:50:02.274Z,4.08
2018-07-27T18:52:30.415Z,4.70
2018-07-27T18:54:58.819Z,4.00
2018-07-27T18:57:26.945Z,4.53
2018-07-27T18:59:55.084Z,4.45
2018-07-27T19:02:23.246Z,4.62
2018-07-27T19:04:51.390Z,4.72
2018-07-27T19:07:19.559Z,4.85
2018-07-27T19:09:47.673Z,5.95
2018-07-27T19:12:15.805Z,4.97
2018-07-27T19:14:44.016Z,5.75
2018-07-27T19:17:12.337Z,5.40
2018-07-27T19:19:40.497Z,5.17
2018-07-27T19:22:08.634Z,7.30
2018-07-27T19:24:36.806Z,8.10
2018-07-27T19:27:04.938Z,5.03
2018-07-27T19:29:33.081Z,4.70
2018-07-27T19:32:01.232Z,5.20
2018-07-27T19:34:29.386Z,4.78
2018-07-27T19:36:57.533Z,6.25
2018-07-27T19:39:25.687Z,6.53
2018-07-27T19:41:53.813Z,6.40
2018-07-27T19:44:22.005Z,6.17
2018-07-27T19:46:50.120Z,5.83
2018-07-27T19:49:18.249Z,5.37
2018-07-27T19:51:46.439Z,6.33
2018-07-27T19:54:14.587Z,5.83
2018-07-27T19:56:42.705Z,5.30
2018-07-27T19:59:10.871Z,6.87
2018-07-27T20:01:39.006Z,6.30
2018-07-27T20:04:07.152Z,6.05
2018-07-27T20:06:35.316Z,7.75
2018-07-27T20:09:05.691Z,5.97
2018-07-27T20:11:33.828Z,6.45
2018-07-27T20:14:01.991Z,7.85
2018-07-27T20:16:30.155Z,8.08
2018-07-27T20:18:58.302Z,9.38
2018-07-27T20:21:26.517Z,6.37
2018-07-27T20:23:54.601Z,7.87
2018-07-27T20:26:22.743Z,6.42
2018-07-27T20:28:50.889Z,6.53
2018-07-27T20:31:19.021Z,7.85
2018-07-27T20:33:47.142Z,6.10
2018-07-27T20:36:15.283Z,5.60
2018-07-27T20:38:43.413Z,7.15
2018-07-27T20:41:11.541Z,5.92
2018-07-27T20:43:39.682Z,5.80
2018-07-27T20:46:07.830Z,6.03
2018-07-27T20:48:35.995Z,6.58
2018-07-27T20:51:04.081Z,7.30
2018-07-27T20:53:32.225Z,8.20
2018-07-27T20:56:00.374Z,8.00
2018-07-27T20:58:28.502Z,6.42
2018-07-27T21:00:56.674Z,7.30
2018-07-27T21:03:24.834Z,8.68
2018-07-27T21:05:52.974Z,7.12
2018-07-27T21:08:21.098Z,7.42
2018-07-27T21:10:49.320Z,6.15
2018-07-27T21:13:17.444Z,7.28
2018-07-27T21:15:45.582Z,6.50
2018-07-27T21:18:13.727Z,5.92
2018-07-27T21:20:41.846Z,6.45
2018-07-27T21:23:10.032Z,8.50
2018-07-27T21:25:38.177Z,7.85
2018-07-27T21:28:06.295Z,6.00
2018-07-27T21:30:34.446Z,5.92
2018-07-27T21:33:02.578Z,6.67
2018-07-27T21:35:30.975Z,6.10
2018-07-27T21:37:59.201Z,6.15
2018-07-27T21:40:27.336Z,6.33
2018-07-27T21:42:55.493Z,6.95
2018-07-27T21:45:23.654Z,5.17
2018-07-27T21:47:51.799Z,5.72
2018-07-27T21:50:19.913Z,7.12
2018-07-27T21:52:48.053Z,7.20
2018-07-27T21:55:16.177Z,5.20
2018-07-27T21:57:44.660Z,7.28
2018-07-27T22:00:12.798Z,5.80
2018-07-27T22:02:40.930Z,7.83
2018-07-27T22:05:09.146Z,5.60
2018-07-27T22:07:37.655Z,7.08
2018-07-27T22:10:05.891Z,5.83
2018-07-27T22:12:34.017Z,8.10
2018-07-27T22:15:02.149Z,4.90
2018-07-27T22:17:30.282Z,4.60
2018-07-27T22:19:58.422Z,4.97
2018-07-27T22:22:26.552Z,6.08
2018-07-27T22:24:54.678Z,6.15
2018-07-27T22:27:22.819Z,5.20
2018-07-27T22:29:50.946Z,6.92
2018-07-27T22:32:19.089Z,4.47
2018-07-27T22:34:47.206Z,4.58
2018-07-27T22:37:15.333Z,4.55
2018-07-27T22:39:43.463Z,5.00
2018-07-27T22:42:11.595Z,6.22
2018-07-27T22:44:39.734Z,4.62
2018-07-27T22:47:07.868Z,4.83
2018-07-27T22:49:35.980Z,4.50
2018-07-27T22:52:04.127Z,5.97
2018-07-27T22:54:32.262Z,5.47
2018-07-27T22:57:00.423Z,4.95
2018-07-27T22:59:28.556Z,6.17
2018-07-27T23:01:56.686Z,3.83
2018-07-27T23:04:24.845Z,4.30
2018-07-27T23:06:53.004Z,4.35
2018-07-27T23:09:21.134Z,5.50
2018-07-27T23:11:49.262Z,7.30
2018-07-27T23:14:17.165Z,8.53
2018-07-27T23:16:45.301Z,5.03
2018-07-27T23:19:13.441Z,5.30
2018-07-27T23:21:41.565Z,4.72
2018-07-27T23:24:09.716Z,6.92
2018-07-27T23:26:37.855Z,4.67
2018-07-27T23:29:06.003Z,5.08
2018-07-27T23:31:34.133Z,5.65
2018-07-27T23:34:02.341Z,4.62
2018-07-27T23:36:30.481Z,3.92
2018-07-27T23:38:58.632Z,3.83
2018-07-27T23:41:26.771Z,4.67
2018-07-27T23:43:54.903Z,7.37
2018-07-27T23:46:23.041Z,6.17
2018-07-27T23:48:51.188Z,6.75
2018-07-27T23:51:19.311Z,4.22
2018-07-27T23:53:47.446Z,4.80
2018-07-27T23:56:15.633Z,4.92
2018-07-27T23:58:43.761Z,4.28
